Time;durP1;ratioP1;P1;durP2;ratioP2;P2;SDS_P1;SDS_P2;PMS_P1;PMS_P2;Temp;Humidity;BMP_temperature;BMP_pressure;BME280_temperature;BME280_humidity;BME280_pressure;Samples;Min_cycle;Max_cycle;Signal;HPM_P1;HPM_P2
2022/08/02 00:01:42;;;;;;;0.75;0.28;;;22.70;99.90;;;;;;4953903;28;20042;-72
2022/08/02 00:04:09;;;;;;;0.10;0.10;;;22.60;99.90;;;;;;4953738;28;20035;-72
2022/08/02 00:06:36;;;;;;;0.30;0.25;;;22.60;99.90;;;;;;4952600;29;20043;-72
2022/08/02 00:09:03;;;;;;;0.32;0.20;;;22.50;99.90;;;;;;4952408;29;20028;-72
2022/08/02 00:11:29;;;;;;;2.30;0.65;;;22.50;99.90;;;;;;4952673;29;20042;-72
2022/08/02 00:13:55;;;;;;;0.28;0.28;;;22.50;99.90;;;;;;4951749;29;20027;-72
2022/08/02 00:16:20;;;;;;;0.35;0.35;;;22.40;99.90;;;;;;4953439;28;20086;-72
2022/08/02 00:18:46;;;;;;;0.00;0.00;;;22.40;99.90;;;;;;4951660;29;20038;-72
2022/08/02 00:21:12;;;;;;;0.20;0.20;;;22.30;99.90;;;;;;4953334;28;20035;-72
2022/08/02 00:23:38;;;;;;;1.40;1.23;;;22.30;99.90;;;;;;4952139;29;20031;-72
2022/08/02 00:26:03;;;;;;;0.00;0.00;;;22.30;99.90;;;;;;4953552;28;20027;-72
2022/08/02 00:28:29;;;;;;;0.35;0.30;;;22.30;99.90;;;;;;4951952;29;20121;-72
2022/08/02 00:30:58;;;;;;;0.15;0.13;;;22.20;99.90;;;;;;4953404;28;20031;-72
2022/08/02 00:33:25;;;;;;;0.25;0.25;;;22.00;99.90;;;;;;4953120;28;20113;-72
2022/08/02 00:35:51;;;;;;;1.75;0.35;;;22.00;99.90;;;;;;4951944;28;20169;-72
2022/08/02 00:38:17;;;;;;;0.63;0.63;;;22.00;99.90;;;;;;4951784;29;20387;-72
2022/08/02 00:40:51;;;;;;;0.20;0.10;;;22.00;99.90;;;;;;4952945;28;20035;-72
2022/08/02 00:43:17;;;;;;;0.05;0.05;;;22.10;99.90;;;;;;4952993;28;20043;-72
2022/08/02 00:45:44;;;;;;;0.00;0.00;;;22.00;99.90;;;;;;4953357;28;20042;-72
2022/08/02 00:48:11;;;;;;;0.38;0.38;;;22.00;99.90;;;;;;4953254;28;20027;-72
2022/08/02 00:50:38;;;;;;;0.22;0.13;;;21.90;99.90;;;;;;4951597;29;20415;-72
2022/08/02 00:53:05;;;;;;;0.30;0.20;;;21.90;99.90;;;;;;4951396;29;20035;-72
2022/08/02 00:55:31;;;;;;;0.63;0.30;;;21.80;99.90;;;;;;4951847;29;20048;-72
2022/08/02 00:57:57;;;;;;;0.40;0.40;;;21.80;99.90;;;;;;4952999;28;20027;-72
2022/08/02 01:00:23;;;;;;;0.65;0.52;;;21.70;99.90;;;;;;4952941;28;20035;-72
2022/08/02 01:02:49;;;;;;;0.10;0.10;;;21.70;99.90;;;;;;4951034;29;20101;-72
2022/08/02 01:05:15;;;;;;;0.10;0.10;;;21.80;99.90;;;;;;4945867;28;20495;-72
2022/08/02 01:07:41;;;;;;;0.45;0.45;;;21.70;99.90;;;;;;4947273;28;20479;-72
2022/08/02 01:10:07;;;;;;;0.40;0.30;;;21.70;99.90;;;;;;4967445;28;20054;-72
2022/08/02 01:12:33;;;;;;;0.00;0.00;;;21.80;99.90;;;;;;4952350;28;20027;-72
2022/08/02 01:15:09;;;;;;;1.63;1.23;;;21.90;99.90;;;;;;4949593;28;20027;-72
2022/08/02 01:20:41;;;;;;;0.00;0.00;;;21.80;99.90;;;;;;4962886;28;20051;-65
2022/08/02 01:23:55;;;;;;;0.22;0.22;;;21.70;99.90;;;;;;4952479;28;20027;-66
2022/08/02 01:26:49;;;;;;;0.00;0.00;;;21.70;99.90;;;;;;4971467;28;20030;-66
2022/08/02 01:29:40;;;;;;;0.00;0.00;;;21.60;99.90;;;;;;4971623;28;20041;-66
2022/08/02 01:32:17;;;;;;;;;;;21.60;99.90;;;;;;4972100;28;20069;-66
2022/08/02 01:34:53;;;;;;;0.00;0.00;;;21.50;99.90;;;;;;4970652;28;20383;-66
2022/08/02 01:37:36;;;;;;;0.20;0.20;;;21.50;99.90;;;;;;4970821;28;20034;-66
2022/08/02 01:40:09;;;;;;;0.00;0.00;;;21.50;99.90;;;;;;4970439;28;20099;-66
2022/08/02 01:42:40;;;;;;;0.25;0.25;;;21.50;99.90;;;;;;4933190;29;20067;-66
2022/08/02 01:45:08;;;;;;;0.50;0.43;;;21.50;99.90;;;;;;4947903;29;20028;-66
2022/08/02 01:47:37;;;;;;;1.95;1.00;;;21.50;99.90;;;;;;4948039;29;20032;-66
2022/08/02 01:50:06;;;;;;;0.57;0.57;;;21.50;99.90;;;;;;4936168;29;20043;-66
2022/08/02 01:52:37;;;;;;;0.10;0.10;;;21.40;99.90;;;;;;4951135;29;20063;-66
2022/08/02 01:55:17;;;;;;;0.00;0.00;;;21.50;99.90;;;;;;4951428;29;20605;-66
2022/08/02 01:57:54;;;;;;;0.15;0.15;;;21.50;99.90;;;;;;4951573;29;20043;-66
2022/08/02 02:00:23;;;;;;;0.10;0.10;;;21.40;99.90;;;;;;4951170;29;20119;-66
2022/08/02 02:02:52;;;;;;;0.10;0.10;;;21.30;99.90;;;;;;4936501;29;20054;-66
2022/08/02 02:05:21;;;;;;;0.00;0.00;;;21.40;99.90;;;;;;4951223;29;20031;-66
2022/08/02 02:07:52;;;;;;;0.05;0.05;;;21.40;99.90;;;;;;4936534;29;20020;-67
2022/08/02 02:10:21;;;;;;;;;;;21.40;99.90;;;;;;4951534;29;20464;-68
2022/08/02 02:12:50;;;;;;;0.00;0.00;;;21.40;99.90;;;;;;4950689;28;19911;-68
2022/08/02 02:15:17;;;;;;;0.00;0.00;;;21.30;99.90;;;;;;4966823;28;20121;-68
2022/08/02 02:17:48;;;;;;;0.75;0.13;;;21.20;99.90;;;;;;4973720;28;20023;-68
2022/08/02 02:20:17;;;;;;;0.50;0.40;;;21.30;99.90;;;;;;4973259;28;20051;-68
2022/08/02 02:22:43;;;;;;;0.03;0.00;;;21.30;99.90;;;;;;4973119;28;20462;-68
2022/08/02 02:25:11;;;;;;;0.20;0.20;;;21.20;99.90;;;;;;4973441;28;20035;-67
2022/08/02 02:27:42;;;;;;;0.20;0.20;;;21.10;99.90;;;;;;4973450;28;20097;-68
2022/08/02 02:30:09;;;;;;;0.10;0.10;;;21.10;99.90;;;;;;4973537;28;20509;-68
2022/08/02 02:32:35;;;;;;;0.10;0.10;;;21.00;99.90;;;;;;4974597;28;20031;-68
2022/08/02 02:35:04;;;;;;;0.00;0.00;;;21.10;99.90;;;;;;4973410;28;20101;-68
2022/08/02 02:37:32;;;;;;;0.03;0.03;;;20.70;99.90;;;;;;4973648;28;20046;-68
2022/08/02 02:39:59;;;;;;;0.40;0.40;;;20.80;99.90;;;;;;4973096;28;20031;-68
2022/08/02 02:42:32;;;;;;;0.30;0.30;;;20.80;99.90;;;;;;4973948;28;20046;-68
2022/08/02 02:45:01;;;;;;;0.00;0.00;;;20.40;99.90;;;;;;4973150;28;20439;-68
2022/08/02 02:47:29;;;;;;;0.52;0.28;;;20.20;99.90;;;;;;4973185;28;20027;-68
2022/08/02 02:49:56;;;;;;;0.03;0.03;;;20.20;99.90;;;;;;4972869;28;20031;-68
2022/08/02 02:52:23;;;;;;;1.10;0.55;;;20.20;99.90;;;;;;4974277;28;20065;-67
2022/08/02 02:54:50;;;;;;;0.52;0.52;;;20.10;99.90;;;;;;4973187;28;20046;-67
2022/08/02 02:57:17;;;;;;;3.53;0.75;;;20.10;99.90;;;;;;4957159;28;20030;-68
2022/08/02 02:59:43;;;;;;;0.20;0.20;;;20.10;99.90;;;;;;4971991;28;20109;-68
2022/08/02 03:02:10;;;;;;;0.32;0.17;;;20.30;99.90;;;;;;4968034;28;20530;-68
2022/08/02 03:04:39;;;;;;;0.00;0.00;;;20.40;99.90;;;;;;4965605;28;20122;-68
2022/08/02 03:07:05;;;;;;;0.32;0.30;;;20.50;99.90;;;;;;4951111;28;20031;-67
2022/08/02 03:09:31;;;;;;;2.13;0.98;;;20.50;99.90;;;;;;4972238;28;20049;-67
2022/08/02 03:11:57;;;;;;;0.10;0.10;;;20.40;99.90;;;;;;4959148;28;20019;-68
2022/08/02 03:14:23;;;;;;;0.22;0.15;;;20.40;99.90;;;;;;4970011;28;20023;-68
2022/08/02 03:16:52;;;;;;;0.17;0.17;;;20.40;99.90;;;;;;4972805;28;20495;-67
2022/08/02 03:19:20;;;;;;;0.03;0.03;;;20.50;99.90;;;;;;4968877;28;20114;-68
2022/08/02 03:21:47;;;;;;;0.20;0.20;;;20.60;99.90;;;;;;4969308;28;20042;-68
2022/08/02 03:24:14;;;;;;;0.10;0.10;;;20.50;99.90;;;;;;4953432;28;20366;-68
2022/08/02 03:26:41;;;;;;;0.65;0.65;;;20.40;99.90;;;;;;4969300;28;20082;-68
2022/08/02 03:29:07;;;;;;;0.10;0.10;;;20.60;99.90;;;;;;4968471;28;20106;-68
2022/08/02 03:31:34;;;;;;;0.10;0.10;;;20.70;99.90;;;;;;4954184;28;20597;-67
2022/08/02 03:34:01;;;;;;;0.43;0.38;;;20.40;99.90;;;;;;4968075;28;20035;-67
2022/08/02 03:36:31;;;;;;;0.10;0.10;;;20.50;99.90;;;;;;4973711;28;20035;-67
2022/08/02 03:39:00;;;;;;;0.00;0.00;;;20.50;99.90;;;;;;4971654;28;20034;-67
2022/08/02 03:41:27;;;;;;;0.00;0.00;;;20.60;99.90;;;;;;4972103;28;20038;-68
2022/08/02 03:43:53;;;;;;;0.17;0.17;;;20.60;99.90;;;;;;4971622;28;20114;-67
2022/08/02 03:46:22;;;;;;;0.13;0.08;;;20.60;99.90;;;;;;4956013;28;20054;-67
2022/08/02 03:48:50;;;;;;;0.52;0.38;;;20.50;99.90;;;;;;4971312;28;20058;-68
2022/08/02 03:51:18;;;;;;;0.17;0.17;;;20.60;99.90;;;;;;4972098;28;20034;-68
2022/08/02 03:53:44;;;;;;;0.08;0.08;;;20.60;99.90;;;;;;4971452;28;20414;-68
2022/08/02 03:56:10;;;;;;;0.20;0.17;;;20.50;99.90;;;;;;4972107;28;20031;-67
2022/08/02 03:58:36;;;;;;;0.03;0.03;;;20.80;99.90;;;;;;4971774;28;20039;-67
2022/08/02 04:01:02;;;;;;;0.28;0.28;;;20.90;99.90;;;;;;4971626;28;20037;-67
2022/08/02 04:03:28;;;;;;;0.10;0.10;;;20.80;99.90;;;;;;4972164;28;20035;-66
2022/08/02 04:05:54;;;;;;;0.20;0.15;;;20.80;99.90;;;;;;4971662;28;20565;-66
2022/08/02 04:08:20;;;;;;;0.20;0.20;;;20.90;99.90;;;;;;4972825;28;20058;-66
2022/08/02 04:13:34;;;;;;;0.13;0.10;;;20.90;99.90;;;;;;4953047;29;20567;-66
2022/08/02 04:16:12;;;;;;;0.00;0.00;;;20.90;99.90;;;;;;4982311;28;20071;-66
2022/08/02 04:18:46;;;;;;;14.80;1.75;;;20.80;99.90;;;;;;4972937;28;20120;-66
2022/08/02 04:21:16;;;;;;;0.00;0.00;;;20.70;99.90;;;;;;4971373;28;20033;-66
2022/08/02 04:23:44;;;;;;;0.98;0.35;;;20.70;99.90;;;;;;4955077;28;20507;-66
2022/08/02 04:26:10;;;;;;;0.00;0.00;;;20.70;99.90;;;;;;4971415;28;20109;-66
2022/08/02 04:28:36;;;;;;;0.47;0.47;;;20.60;99.90;;;;;;4971061;28;20046;-66
2022/08/02 04:31:03;;;;;;;0.10;0.10;;;20.50;99.90;;;;;;4970904;28;20069;-66
2022/08/02 04:33:30;;;;;;;0.08;0.08;;;20.40;99.90;;;;;;4970995;28;20052;-66
2022/08/02 04:35:57;;;;;;;0.00;0.00;;;20.50;99.90;;;;;;4971147;28;20027;-66
2022/08/02 04:38:23;;;;;;;0.17;0.17;;;20.50;99.90;;;;;;4971877;28;20023;-66
2022/08/02 04:40:54;;;;;;;0.15;0.10;;;20.50;99.90;;;;;;4970871;28;20031;-66
2022/08/02 04:43:21;;;;;;;;;;;20.60;99.90;;;;;;4972370;28;20038;-67
2022/08/02 04:45:52;;;;;;;0.13;0.13;;;20.70;99.90;;;;;;4971356;28;19932;-67
2022/08/02 04:48:19;;;;;;;0.45;0.45;;;20.80;99.90;;;;;;4957572;28;20031;-68
2022/08/02 04:50:45;;;;;;;0.10;0.10;;;20.70;99.90;;;;;;4948549;28;20101;-66
2022/08/02 04:53:11;;;;;;;2.40;0.52;;;20.70;99.90;;;;;;4951112;29;20479;-66
2022/08/02 04:55:37;;;;;;;0.98;0.60;;;20.70;99.90;;;;;;4951486;29;20373;-66
2022/08/02 04:58:02;;;;;;;0.10;0.10;;;20.70;99.90;;;;;;4952728;29;20125;-67
2022/08/02 05:00:29;;;;;;;0.30;0.30;;;20.50;99.90;;;;;;4952509;28;20027;-66
2022/08/02 05:02:56;;;;;;;0.20;0.20;;;20.60;99.90;;;;;;4950666;29;20608;-66
2022/08/02 05:05:22;;;;;;;0.10;0.00;;;20.70;99.90;;;;;;4935995;29;20107;-66
2022/08/02 05:07:48;;;;;;;0.20;0.20;;;20.60;99.90;;;;;;4952765;29;20485;-66
2022/08/02 05:10:14;;;;;;;0.10;0.10;;;20.70;99.90;;;;;;4950867;29;20069;-66
2022/08/02 05:12:40;;;;;;;0.00;0.00;;;20.70;99.90;;;;;;4952328;29;20055;-65
2022/08/02 05:15:09;;;;;;;0.30;0.30;;;21.00;99.90;;;;;;4973815;28;20034;-77
2022/08/02 05:17:35;;;;;;;0.65;0.52;;;21.30;99.90;;;;;;4971943;28;20113;-75
2022/08/02 05:20:01;;;;;;;0.05;0.05;;;21.40;99.90;;;;;;4936740;28;20127;-76
2022/08/02 05:22:27;;;;;;;0.50;0.30;;;21.40;99.90;;;;;;4933733;29;20087;-74
2022/08/02 05:24:52;;;;;;;3.53;0.60;;;21.40;99.90;;;;;;4937674;29;20038;-74
2022/08/02 05:27:18;;;;;;;0.10;0.10;;;21.40;99.90;;;;;;4937211;29;20063;-73
2022/08/02 05:29:44;;;;;;;0.15;0.15;;;21.40;99.90;;;;;;4935598;29;20171;-72
2022/08/02 05:32:09;;;;;;;0.10;0.10;;;21.50;99.90;;;;;;4936792;29;20388;-77
2022/08/02 05:34:35;;;;;;;0.20;0.17;;;21.60;99.90;;;;;;4937029;29;20040;-78
2022/08/02 05:37:01;;;;;;;0.32;0.32;;;21.80;99.90;;;;;;4937089;29;20032;-75
2022/08/02 05:39:27;;;;;;;0.13;0.13;;;21.90;99.90;;;;;;4936739;29;20039;-78
2022/08/02 05:41:52;;;;;;;0.00;0.00;;;21.80;99.90;;;;;;4936943;29;20031;-75
2022/08/02 05:44:18;;;;;;;0.17;0.17;;;21.60;99.90;;;;;;4935138;29;20036;-76
2022/08/02 05:46:44;;;;;;;0.00;0.00;;;21.40;99.90;;;;;;4936698;29;20094;-76
2022/08/02 05:49:09;;;;;;;0.68;0.60;;;21.40;99.90;;;;;;4950822;29;20568;-75
2022/08/02 05:51:41;;;;;;;0.63;0.47;;;21.30;99.90;;;;;;4935361;29;20110;-73
2022/08/02 05:54:19;;;;;;;0.55;0.50;;;21.40;99.90;;;;;;4935218;29;20038;-76
2022/08/02 05:57:00;;;;;;;0.00;0.00;;;21.20;99.90;;;;;;4936521;29;20090;-76
2022/08/02 05:59:44;;;;;;;0.20;0.13;;;21.30;99.90;;;;;;4936026;29;20043;-75
2022/08/02 06:02:39;;;;;;;0.20;0.20;;;21.40;99.90;;;;;;4937284;29;20114;-77
2022/08/02 06:05:13;;;;;;;0.20;0.10;;;21.40;99.90;;;;;;4955474;29;20035;-75
2022/08/02 06:07:43;;;;;;;0.15;0.15;;;21.30;99.90;;;;;;4955437;29;20032;-74
2022/08/02 06:10:12;;;;;;;0.00;0.00;;;21.30;99.90;;;;;;4956584;28;20034;-76
2022/08/02 06:13:09;;;;;;;0.00;0.00;;;21.40;99.90;;;;;;4974604;28;20505;-76
2022/08/02 06:15:37;;;;;;;0.30;0.28;;;21.40;99.90;;;;;;4970428;28;20491;-76
2022/08/02 06:18:06;;;;;;;0.25;0.17;;;21.40;99.90;;;;;;4971718;28;20395;-76
2022/08/02 06:20:36;;;;;;;0.13;0.13;;;21.30;99.90;;;;;;4954207;29;20081;-76
2022/08/02 06:23:07;;;;;;;0.05;0.05;;;21.40;99.90;;;;;;4955267;29;20023;-77
2022/08/02 06:25:37;;;;;;;;;;;21.40;99.90;;;;;;4955664;29;20047;-75
2022/08/02 06:28:05;;;;;;;0.45;0.45;;;21.60;99.90;;;;;;4955233;29;19952;-75
2022/08/02 06:30:32;;;;;;;2.08;1.08;;;21.60;99.90;;;;;;4954486;29;20035;-76
2022/08/02 06:32:58;;;;;;;0.32;0.20;;;21.50;99.90;;;;;;4954336;28;20367;-66
2022/08/02 06:35:36;;;;;;;15.45;0.55;;;21.60;99.90;;;;;;4952793;28;20042;-66
2022/08/02 06:38:03;;;;;;;0.50;0.30;;;21.50;99.90;;;;;;4953251;29;20031;-66
2022/08/02 06:41:01;;;;;;;0.00;0.00;;;21.60;99.90;;;;;;4952909;29;20130;-66
2022/08/02 06:43:58;;;;;;;0.85;0.43;;;21.60;99.90;;;;;;4939522;29;20035;-65
2022/08/02 06:46:24;;;;;;;0.25;0.25;;;21.80;99.90;;;;;;4954876;28;20031;-66
2022/08/02 06:48:50;;;;;;;0.15;0.15;;;21.80;99.90;;;;;;4945223;29;20083;-63
2022/08/02 06:51:17;;;;;;;0.17;0.17;;;21.90;99.90;;;;;;4945227;29;20082;-64
2022/08/02 06:53:44;;;;;;;0.10;0.10;;;21.90;99.90;;;;;;4969249;28;20557;-65
2022/08/02 06:56:10;;;;;;;0.75;0.63;;;21.90;99.90;;;;;;4954953;28;20035;-64
2022/08/02 06:58:36;;;;;;;0.00;0.00;;;22.00;99.90;;;;;;4954723;29;20061;-64
2022/08/02 07:01:05;;;;;;;0.00;0.00;;;22.10;99.90;;;;;;4953147;29;20112;-64
2022/08/02 07:03:33;;;;;;;0.10;0.10;;;22.10;99.90;;;;;;4952204;28;20035;-64
2022/08/02 07:05:59;;;;;;;0.28;0.28;;;22.20;99.90;;;;;;4953085;29;20420;-63
2022/08/02 07:08:26;;;;;;;0.88;0.82;;;22.30;99.90;;;;;;4942139;28;20035;-64
2022/08/02 07:10:52;;;;;;;0.00;0.00;;;22.50;99.90;;;;;;4978437;28;20031;-64
2022/08/02 07:13:17;;;;;;;0.00;0.00;;;22.40;99.90;;;;;;4966263;28;20028;-63
2022/08/02 07:15:43;;;;;;;3.40;0.30;;;22.50;99.90;;;;;;4953365;29;20035;-64
2022/08/02 07:20:49;;;;;;;0.30;0.30;;;22.70;99.90;;;;;;4938964;29;20047;-60
2022/08/02 07:23:15;;;;;;;0.17;0.17;;;22.90;99.90;;;;;;4953092;29;20502;-61
2022/08/02 07:25:41;;;;;;;0.00;0.00;;;23.00;99.90;;;;;;4952890;29;20047;-61
2022/08/02 07:28:14;;;;;;;0.32;0.25;;;23.00;99.90;;;;;;4953828;29;20484;-61
2022/08/02 07:30:41;;;;;;;0.10;0.10;;;23.00;99.90;;;;;;4933463;29;20455;-61
2022/08/02 07:33:07;;;;;;;0.20;0.20;;;23.10;99.90;;;;;;4932275;29;20032;-61
2022/08/02 07:35:33;;;;;;;0.20;0.17;;;23.30;99.90;;;;;;4933433;29;20114;-60
2022/08/02 07:37:59;;;;;;;1.45;0.90;;;23.40;99.90;;;;;;4934419;29;20489;-65
2022/08/02 07:40:26;;;;;;;0.10;0.10;;;23.50;99.90;;;;;;4932433;29;20035;-63
2022/08/02 07:42:55;;;;;;;0.25;0.15;;;23.60;99.90;;;;;;4932649;29;20035;-62
2022/08/02 07:45:22;;;;;;;0.00;0.00;;;23.80;99.90;;;;;;4932290;29;20046;-62
2022/08/02 07:47:49;;;;;;;0.30;0.20;;;23.80;99.90;;;;;;4932688;29;20090;-62
2022/08/02 07:50:17;;;;;;;0.08;0.08;;;23.90;99.90;;;;;;4932230;29;20047;-62
2022/08/02 07:52:44;;;;;;;0.00;0.00;;;24.00;99.90;;;;;;4932713;29;20428;-63
2022/08/02 07:55:12;;;;;;;0.47;0.35;;;23.90;99.90;;;;;;4932111;29;20480;-63
2022/08/02 07:57:40;;;;;;;0.10;0.10;;;23.70;99.90;;;;;;4933496;29;20036;-63
2022/08/02 08:00:08;;;;;;;0.30;0.30;;;23.80;99.90;;;;;;4912899;29;20036;-63
2022/08/02 08:02:34;;;;;;;0.32;0.32;;;24.00;99.90;;;;;;4927936;29;20040;-63
2022/08/02 08:05:00;;;;;;;0.20;0.13;;;24.20;99.50;;;;;;4933034;29;20047;-63
2022/08/02 08:07:27;;;;;;;0.85;0.63;;;24.40;98.90;;;;;;4932651;29;20033;-63
2022/08/02 08:09:53;;;;;;;0.00;0.00;;;24.50;98.70;;;;;;4932850;29;20074;-63
2022/08/02 08:12:19;;;;;;;0.30;0.30;;;24.50;96.80;;;;;;4933229;29;20031;-63
2022/08/02 08:14:45;;;;;;;0.20;0.15;;;24.70;96.30;;;;;;4924347;29;20023;-62
2022/08/02 08:17:11;;;;;;;0.03;0.03;;;24.70;96.10;;;;;;4932520;29;20038;-62
2022/08/02 08:19:36;;;;;;;0.20;0.10;;;24.70;95.30;;;;;;4932650;29;20119;-63
2022/08/02 08:22:02;;;;;;;1.38;0.20;;;24.80;96.10;;;;;;4932881;29;20032;-63
2022/08/02 08:24:28;;;;;;;0.20;0.20;;;24.90;94.30;;;;;;4927102;29;20122;-63
2022/08/02 08:26:55;;;;;;;0.00;0.00;;;25.00;94.60;;;;;;4900004;29;20492;-63
2022/08/02 08:29:22;;;;;;;0.00;0.00;;;25.00;93.40;;;;;;4932760;29;20027;-62
2022/08/02 08:31:49;;;;;;;0.40;0.38;;;25.10;94.00;;;;;;4909305;29;20492;-63
2022/08/02 08:34:15;;;;;;;7.03;0.90;;;25.20;94.00;;;;;;4946256;29;20032;-63
2022/08/02 08:36:41;;;;;;;0.65;0.43;;;25.20;92.20;;;;;;4931799;29;20174;-63
2022/08/02 08:39:07;;;;;;;0.00;0.00;;;25.30;91.50;;;;;;4932298;29;20035;-63
2022/08/02 08:41:35;;;;;;;0.00;0.00;;;25.40;92.10;;;;;;4903090;29;20028;-63
2022/08/02 08:44:01;;;;;;;0.28;0.28;;;25.40;90.40;;;;;;4928752;29;20032;-66
2022/08/02 08:46:35;;;;;;;0.00;0.00;;;25.50;90.40;;;;;;4932392;29;20027;-65
2022/08/02 08:49:17;;;;;;;0.00;0.00;;;25.50;90.80;;;;;;4926490;29;20028;-65
2022/08/02 08:51:43;;;;;;;0.03;0.00;;;25.60;91.30;;;;;;4915522;29;20142;-67
2022/08/02 08:54:16;;;;;;;0.00;0.00;;;25.70;90.70;;;;;;4917342;29;20481;-68
2022/08/02 08:56:43;;;;;;;0.00;0.00;;;25.80;89.80;;;;;;4928985;29;20123;-68
2022/08/02 08:59:09;;;;;;;0.05;0.05;;;25.80;88.50;;;;;;4916699;29;20040;-68
2022/08/02 09:01:35;;;;;;;0.00;0.00;;;25.80;88.50;;;;;;4913887;29;20032;-67
2022/08/02 09:04:01;;;;;;;0.45;0.45;;;25.90;90.20;;;;;;4913864;29;20370;-68
2022/08/02 09:06:28;;;;;;;0.00;0.00;;;25.90;88.00;;;;;;4914766;29;20044;-67
2022/08/02 09:08:54;;;;;;;0.88;0.63;;;26.10;85.70;;;;;;4914131;29;20040;-68
2022/08/02 09:11:24;;;;;;;0.00;0.00;;;25.90;85.70;;;;;;4925094;29;20468;-67
2022/08/02 09:13:57;;;;;;;0.00;0.00;;;26.10;87.70;;;;;;4931729;29;20087;-67
2022/08/02 09:16:39;;;;;;;0.00;0.00;;;26.20;85.00;;;;;;4916731;29;20043;-67
2022/08/02 09:19:24;;;;;;;0.00;0.00;;;26.20;85.00;;;;;;4931484;29;20102;-69
2022/08/02 09:22:01;;;;;;;0.00;0.00;;;26.10;85.20;;;;;;4932412;29;20032;-67
2022/08/02 09:24:27;;;;;;;0.30;0.20;;;26.20;85.10;;;;;;4933139;29;20392;-68
2022/08/02 09:26:53;;;;;;;0.03;0.03;;;26.40;85.80;;;;;;4933172;29;20036;-67
2022/08/02 09:29:23;;;;;;;0.20;0.15;;;26.50;86.00;;;;;;4933070;29;20036;-68
2022/08/02 09:31:50;;;;;;;0.00;0.00;;;26.60;85.20;;;;;;4932396;29;20155;-68
2022/08/02 09:34:16;;;;;;;0.00;0.00;;;26.70;84.60;;;;;;4930637;29;20051;-68
2022/08/02 09:36:44;;;;;;;0.20;0.20;;;26.80;83.80;;;;;;4929581;29;20126;-68
2022/08/02 09:39:15;;;;;;;0.10;0.03;;;26.50;83.30;;;;;;4931513;29;20032;-68
2022/08/02 09:41:43;;;;;;;;;;;26.40;84.00;;;;;;4927478;29;20036;-68
2022/08/02 09:44:12;;;;;;;3.65;1.08;;;26.60;84.60;;;;;;4919362;29;20295;-67
2022/08/02 09:46:44;;;;;;;0.65;0.43;;;26.80;83.60;;;;;;4922568;29;20028;-67
2022/08/02 09:49:15;;;;;;;0.10;0.10;;;27.10;83.80;;;;;;4918307;29;20547;-67
2022/08/02 09:51:55;;;;;;;0.00;0.00;;;27.30;83.00;;;;;;4933245;29;20032;-67
2022/08/02 09:54:28;;;;;;;0.00;0.00;;;27.40;82.00;;;;;;4932802;29;20491;-67
2022/08/02 09:56:58;;;;;;;0.00;0.00;;;27.60;82.50;;;;;;4933237;29;20778;-68
2022/08/02 09:59:26;;;;;;;0.30;0.20;;;27.60;82.00;;;;;;4947510;29;20044;-68
2022/08/02 10:01:53;;;;;;;0.00;0.00;;;27.80;82.20;;;;;;4933014;29;20131;-67
2022/08/02 10:04:23;;;;;;;0.00;0.00;;;27.90;81.30;;;;;;4931091;29;20488;-67
2022/08/02 10:06:50;;;;;;;0.25;0.25;;;28.00;80.90;;;;;;4933426;29;20078;-67
2022/08/02 10:09:16;;;;;;;0.00;0.00;;;27.80;80.20;;;;;;4932628;29;20032;-68
2022/08/02 10:11:42;;;;;;;0.63;0.60;;;27.50;80.60;;;;;;4935388;29;20036;-69
2022/08/02 10:14:09;;;;;;;0.00;0.00;;;27.70;81.50;;;;;;4936102;29;20067;-69
2022/08/02 10:16:41;;;;;;;0.10;0.10;;;28.00;81.20;;;;;;4934916;29;20546;-70
2022/08/02 10:19:08;;;;;;;0.00;0.00;;;28.20;80.10;;;;;;4934774;29;20043;-68
2022/08/02 10:21:49;;;;;;;0.00;0.00;;;28.50;79.50;;;;;;4935019;29;20030;-69
2022/08/02 10:24:20;;;;;;;0.00;0.00;;;28.60;78.10;;;;;;4936021;29;20032;-69
2022/08/02 10:26:47;;;;;;;0.25;0.20;;;28.90;77.20;;;;;;4935232;29;20083;-69
2022/08/02 10:29:33;;;;;;;0.65;0.30;;;29.10;77.70;;;;;;4935632;29;20039;-69
2022/08/02 10:32:21;;;;;;;0.10;0.00;;;29.30;77.80;;;;;;4934783;29;20590;-69
2022/08/02 10:34:54;;;;;;;0.00;0.00;;;29.40;75.60;;;;;;4934312;29;20039;-68
2022/08/02 10:37:26;;;;;;;0.10;0.10;;;29.30;75.80;;;;;;4935074;29;20038;-71
2022/08/02 10:39:56;;;;;;;0.08;0.08;;;29.40;75.80;;;;;;4934335;29;20046;-70
2022/08/02 10:42:49;;;;;;;0.00;0.00;;;29.40;74.70;;;;;;4934428;29;20366;-69
2022/08/02 10:45:20;;;;;;;2.55;0.22;;;29.40;75.90;;;;;;4935408;29;20419;-71
2022/08/02 10:48:09;;;;;;;0.20;0.10;;;29.70;74.60;;;;;;4936031;29;20063;-69
2022/08/02 10:50:46;;;;;;;0.03;0.03;;;29.80;74.70;;;;;;4916645;29;20044;-68
2022/08/02 10:53:28;;;;;;;0.38;0.38;;;30.10;73.90;;;;;;4916381;29;20067;-68
2022/08/02 10:55:58;;;;;;;0.40;0.30;;;30.10;72.70;;;;;;4916569;29;20036;-68
2022/08/02 10:58:28;;;;;;;0.10;0.10;;;30.00;73.10;;;;;;4915239;29;20489;-68
2022/08/02 11:00:54;;;;;;;0.63;0.55;;;30.00;72.80;;;;;;4914986;29;20039;-68
2022/08/02 11:03:33;;;;;;;0.00;0.00;;;29.70;72.00;;;;;;4916162;29;20499;-68
2022/08/02 11:06:17;;;;;;;0.03;0.03;;;29.80;73.10;;;;;;4934205;29;20607;-68
2022/08/02 11:08:43;;;;;;;0.30;0.30;;;29.60;72.70;;;;;;4935204;29;20051;-68
2022/08/02 11:11:09;;;;;;;0.28;0.28;;;29.50;72.40;;;;;;4926058;29;20123;-68
2022/08/02 11:14:01;;;;;;;0.10;0.10;;;29.60;72.00;;;;;;4915837;29;20085;-68
2022/08/02 11:16:55;;;;;;;0.00;0.00;;;29.40;71.30;;;;;;4916669;29;20036;-67
2022/08/02 11:19:22;;;;;;;0.20;0.20;;;29.60;71.90;;;;;;4915686;29;20075;-68
2022/08/02 11:22:06;;;;;;;0.32;0.32;;;29.90;71.90;;;;;;4915529;29;20363;-68
2022/08/02 11:24:34;;;;;;;0.00;0.00;;;30.10;71.80;;;;;;4914856;29;20032;-68
2022/08/02 11:27:07;;;;;;;0.10;0.10;;;30.10;72.10;;;;;;4899275;29;20473;-68
2022/08/02 11:29:40;;;;;;;0.10;0.10;;;30.10;71.10;;;;;;4915146;29;20453;-68
2022/08/02 11:32:15;;;;;;;1.55;0.28;;;30.20;71.60;;;;;;4914394;29;20056;-68
2022/08/02 11:34:44;;;;;;;0.00;0.00;;;30.10;71.60;;;;;;4914207;29;20024;-69
2022/08/02 11:37:10;;;;;;;0.20;0.20;;;30.10;71.20;;;;;;4914968;29;20064;-69
2022/08/02 11:39:36;;;;;;;0.00;0.00;;;30.50;71.20;;;;;;4915328;29;20436;-68
2022/08/02 11:42:02;;;;;;;1.10;0.82;;;30.70;71.30;;;;;;4915595;29;20040;-68
2022/08/02 11:44:38;;;;;;;0.25;0.25;;;30.70;70.50;;;;;;4915252;29;20131;-69
2022/08/02 11:47:05;;;;;;;0.73;0.52;;;30.60;70.50;;;;;;4914899;29;20115;-68
2022/08/02 11:49:31;;;;;;;0.00;0.00;;;30.20;69.30;;;;;;4926696;29;20180;-69
2022/08/02 11:52:06;;;;;;;6.55;0.40;;;29.90;69.90;;;;;;4934203;29;20032;-69
2022/08/02 11:54:35;;;;;;;2.95;1.40;;;30.10;70.10;;;;;;4934597;29;20036;-70
2022/08/02 11:57:27;;;;;;;0.10;0.00;;;30.40;70.30;;;;;;4933596;29;20031;-69
2022/08/02 11:59:55;;;;;;;0.25;0.25;;;30.70;69.60;;;;;;4931502;29;20047;-69
2022/08/02 12:02:27;;;;;;;0.40;0.40;;;30.90;69.70;;;;;;4932917;29;20036;-70
2022/08/02 12:05:00;;;;;;;0.38;0.22;;;30.40;69.40;;;;;;4932768;29;20028;-70
2022/08/02 12:07:35;;;;;;;1.98;0.57;;;30.70;70.20;;;;;;4934287;29;20078;-70
2022/08/02 12:10:11;;;;;;;0.10;0.10;;;30.80;70.10;;;;;;4932669;29;20181;-69
2022/08/02 12:12:53;;;;;;;0.00;0.00;;;31.00;70.30;;;;;;4932477;29;20114;-70
2022/08/02 12:15:36;;;;;;;0.00;0.00;;;31.00;70.40;;;;;;4934056;29;20046;-69
2022/08/02 12:20:51;;;;;;;0.00;0.00;;;30.90;69.00;;;;;;4924367;29;20062;-69
2022/08/02 12:23:17;;;;;;;0.00;0.00;;;31.10;69.30;;;;;;4932475;29;20488;-69
2022/08/02 12:25:43;;;;;;;0.08;0.08;;;31.50;69.00;;;;;;4931630;29;20039;-69
2022/08/02 12:28:21;;;;;;;0.00;0.00;;;31.40;67.80;;;;;;4932283;29;20440;-69
2022/08/02 12:30:57;;;;;;;0.00;0.00;;;31.40;69.10;;;;;;4931839;29;20027;-69
2022/08/02 12:33:26;;;;;;;0.17;0.08;;;31.70;68.30;;;;;;4903883;29;20028;-68
2022/08/02 12:35:53;;;;;;;0.55;0.40;;;31.90;68.00;;;;;;4930965;29;20035;-68
2022/08/02 12:38:19;;;;;;;0.05;0.05;;;32.10;67.00;;;;;;4933071;29;20049;-70
2022/08/02 12:40:45;;;;;;;1.15;0.28;;;31.90;67.30;;;;;;4947621;29;20484;-70
2022/08/02 12:43:22;;;;;;;0.15;0.15;;;32.20;67.20;;;;;;4933441;29;20054;-70
2022/08/02 12:45:56;;;;;;;0.93;0.57;;;32.30;66.30;;;;;;4933148;29;20028;-68
2022/08/02 12:48:37;;;;;;;0.00;0.00;;;32.20;66.40;;;;;;4933745;29;20433;-69
2022/08/02 12:51:22;;;;;;;0.30;0.30;;;32.40;64.80;;;;;;4933089;29;20035;-69
2022/08/02 12:53:51;;;;;;;0.40;0.20;;;31.70;65.60;;;;;;4932113;29;20047;-69
2022/08/02 12:56:37;;;;;;;1.65;0.30;;;31.70;65.10;;;;;;4933742;29;20031;-69
2022/08/02 12:59:03;;;;;;;0.00;0.00;;;31.80;66.10;;;;;;4931615;29;20059;-69
2022/08/02 13:01:29;;;;;;;0.43;0.40;;;32.10;64.40;;;;;;4932037;29;20062;-68
2022/08/02 13:03:57;;;;;;;0.13;0.13;;;31.80;65.60;;;;;;4931476;29;20028;-69
2022/08/02 13:06:24;;;;;;;0.57;0.57;;;31.80;64.90;;;;;;4933213;29;20053;-69
2022/08/02 13:08:53;;;;;;;4.60;0.35;;;31.90;65.60;;;;;;4931683;29;20028;-69
2022/08/02 13:11:19;;;;;;;1.67;0.30;;;32.30;65.30;;;;;;4930448;29;20532;-69
2022/08/02 13:13:45;;;;;;;0.40;0.40;;;32.10;64.20;;;;;;4932764;29;20036;-69